Time;durP1;ratioP1;P1;durP2;ratioP2;P2;SDS_P1;SDS_P2;PMS_P1;PMS_P2;Temp;Humidity;BMP_temperature;BMP_pressure;BME280_temperature;BME280_humidity;BME280_pressure;Samples;Min_cycle;Max_cycle;Signal;HPM_P1;HPM_P2
2022/07/17 00:02:11;;;;;;;6.45;2.38;;;;;;;13.87;76.91;102602.81;4875284;29;20113;-67
2022/07/17 00:04:36;;;;;;;3.45;1.77;;;;;;;13.87;77.21;102608.16;4875722;29;20037;-67
2022/07/17 00:07:01;;;;;;;5.03;2.63;;;;;;;13.82;77.31;102610.53;4875484;29;20057;-67
2022/07/17 00:09:27;;;;;;;4.82;2.67;;;;;;;13.76;78.27;102613.91;4875769;29;20040;-67
2022/07/17 00:11:52;;;;;;;4.65;1.85;;;;;;;13.76;78.09;102611.25;4875874;29;20033;-67
2022/07/17 00:14:17;;;;;;;7.78;2.75;;;;;;;13.64;77.93;102609.94;4875798;29;20139;-67
2022/07/17 00:16:43;;;;;;;4.10;1.90;;;;;;;13.57;78.74;102602.59;4875821;29;20116;-67
2022/07/17 00:19:08;;;;;;;7.18;3.17;;;;;;;13.47;78.76;102609.19;4875493;29;20043;-67
2022/07/17 00:21:33;;;;;;;7.43;2.50;;;;;;;13.38;77.89;102611.03;4875491;29;20108;-67
2022/07/17 00:23:59;;;;;;;7.78;4.07;;;;;;;13.30;77.88;102606.53;4858673;29;20128;-67
2022/07/17 00:26:24;;;;;;;7.85;3.85;;;;;;;13.29;77.52;102615.56;4875604;29;20064;-67
2022/07/17 00:28:50;;;;;;;8.23;3.63;;;;;;;13.29;77.38;102609.38;4859167;29;21005;-67
2022/07/17 00:31:15;;;;;;;7.43;3.00;;;;;;;13.27;78.13;102606.03;4858693;29;20497;-67
2022/07/17 00:33:41;;;;;;;6.32;2.88;;;;;;;13.24;79.11;102601.00;4875689;29;20446;-67
2022/07/17 00:36:07;;;;;;;8.65;3.25;;;;;;;13.21;79.43;102607.53;4858784;29;20115;-67
2022/07/17 00:38:32;;;;;;;5.00;3.00;;;;;;;13.15;79.71;102601.03;4875464;29;20062;-67
2022/07/17 00:40:58;;;;;;;8.15;2.47;;;;;;;13.20;79.95;102610.38;4875352;29;20044;-67
2022/07/17 00:43:24;;;;;;;6.00;2.55;;;;;;;13.15;79.68;102606.38;4874837;29;20032;-67
2022/07/17 00:46:01;;;;;;;6.00;2.70;;;;;;;13.10;78.86;102611.41;4875158;29;20425;-67
2022/07/17 00:48:27;;;;;;;4.03;2.50;;;;;;;13.07;79.17;102609.06;4875161;29;20041;-67
2022/07/17 00:50:53;;;;;;;5.95;2.30;;;;;;;13.01;79.24;102607.06;4875238;29;20470;-67
2022/07/17 00:53:19;;;;;;;7.53;2.35;;;;;;;12.97;79.43;102607.56;4875321;29;20048;-67
2022/07/17 00:55:47;;;;;;;5.82;2.55;;;;;;;12.92;80.35;102608.91;4875147;29;20021;-67
2022/07/17 00:58:21;;;;;;;4.07;2.35;;;;;;;12.88;80.74;102609.41;4875274;29;20037;-67
2022/07/17 01:00:49;;;;;;;4.93;2.80;;;;;;;12.90;80.39;102618.94;4878753;29;20434;-67
2022/07/17 01:03:16;;;;;;;5.13;2.22;;;;;;;12.82;81.01;102615.44;4878696;29;20076;-67
2022/07/17 01:05:41;;;;;;;3.88;2.53;;;;;;;12.72;81.71;102607.59;4878516;29;20033;-67
2022/07/17 01:08:07;;;;;;;4.90;3.13;;;;;;;12.63;82.00;102612.09;4878414;29;20045;-67
2022/07/17 01:10:32;;;;;;;5.88;2.13;;;;;;;12.57;82.37;102604.72;4861830;29;20091;-67
2022/07/17 01:12:58;;;;;;;3.70;2.60;;;;;;;12.51;82.62;102600.03;4878766;29;20036;-67
2022/07/17 01:15:23;;;;;;;6.18;2.90;;;;;;;12.49;82.22;102599.38;4878774;29;20033;-67
2022/07/17 01:17:49;;;;;;;6.22;2.65;;;;;;;12.41;82.80;102594.84;4878727;29;20048;-67
2022/07/17 01:20:15;;;;;;;4.07;2.20;;;;;;;12.42;82.50;102599.22;4878713;29;20431;-67
2022/07/17 01:22:45;;;;;;;3.70;2.17;;;;;;;12.41;83.17;102589.50;4878491;29;20512;-67
2022/07/17 01:25:11;;;;;;;7.93;3.00;;;;;;;12.38;82.63;102597.84;4878385;29;20065;-67
2022/07/17 01:27:37;;;;;;;4.78;2.80;;;;;;;12.21;82.75;102582.81;4878386;29;20047;-67
2022/07/17 01:30:03;;;;;;;4.38;3.20;;;;;;;12.24;83.58;102593.16;4878456;29;20041;-67
2022/07/17 01:32:34;;;;;;;7.20;3.42;;;;;;;12.26;83.05;102607.19;4878457;29;20037;-67
2022/07/17 01:34:59;;;;;;;3.88;2.75;;;;;;;12.22;82.52;102600.50;4878455;29;20060;-67
2022/07/17 01:37:24;;;;;;;5.32;2.80;;;;;;;12.13;83.06;102590.78;4878414;29;20677;-67
2022/07/17 01:39:52;;;;;;;7.75;3.05;;;;;;;12.05;83.64;102597.81;4878297;29;20037;-67
2022/07/17 01:42:19;;;;;;;5.68;3.17;;;;;;;11.99;83.71;102600.28;4878291;29;20029;-67
2022/07/17 01:44:44;;;;;;;8.63;3.53;;;;;;;11.92;84.10;102604.59;4878091;29;20044;-67
2022/07/17 01:47:13;;;;;;;7.85;4.00;;;;;;;11.89;84.52;102594.25;4860894;29;20041;-67
2022/07/17 01:49:43;;;;;;;9.30;4.45;;;;;;;11.81;84.79;102601.19;4878211;29;20540;-67
2022/07/17 01:52:09;;;;;;;8.65;4.13;;;;;;;11.79;84.95;102599.72;4878286;29;20473;-67
2022/07/17 01:54:34;;;;;;;5.13;2.90;;;;;;;11.81;85.17;102598.53;4878050;29;20073;-67
2022/07/17 01:56:59;;;;;;;6.05;3.70;;;;;;;11.82;85.11;102602.06;4878116;29;20040;-67
2022/07/17 01:59:25;;;;;;;5.93;3.00;;;;;;;11.83;84.09;102599.19;4877874;29;20052;-67
2022/07/17 02:01:50;;;;;;;8.68;3.22;;;;;;;11.85;84.22;102599.06;4878072;29;20639;-67
2022/07/17 02:04:15;;;;;;;8.65;3.53;;;;;;;11.84;84.08;102598.22;4877729;29;20036;-67
2022/07/17 02:06:41;;;;;;;9.68;3.88;;;;;;;11.82;84.15;102605.56;4877152;29;20117;-67
2022/07/17 02:09:06;;;;;;;4.38;2.92;;;;;;;11.80;84.21;102606.72;4877158;29;20044;-67
2022/07/17 02:11:31;;;;;;;7.75;3.05;;;;;;;11.77;84.09;102604.38;4877247;29;20037;-67
2022/07/17 02:13:57;;;;;;;4.45;3.00;;;;;;;11.79;84.36;102605.06;4878072;29;20033;-67
2022/07/17 02:16:22;;;;;;;7.20;2.90;;;;;;;11.76;84.41;102616.91;4877633;29;20151;-67
2022/07/17 02:18:47;;;;;;;7.68;3.90;;;;;;;11.73;84.14;102605.69;4877575;29;20072;-67
2022/07/17 02:21:13;;;;;;;7.47;3.20;;;;;;;11.68;85.12;102600.81;4860223;29;20079;-67
2022/07/17 02:23:38;;;;;;;4.20;2.83;;;;;;;11.62;84.46;102598.78;4877535;29;20044;-67
2022/07/17 02:26:04;;;;;;;7.80;3.35;;;;;;;11.65;84.76;102606.47;4861221;29;20049;-67
2022/07/17 02:28:29;;;;;;;13.70;3.85;;;;;;;11.67;84.70;102607.16;4877593;29;20388;-67
2022/07/17 02:30:55;;;;;;;5.32;3.20;;;;;;;11.67;85.51;102606.34;4877418;29;20097;-67
2022/07/17 02:33:20;;;;;;;12.32;4.15;;;;;;;11.66;84.55;102616.19;4861020;29;20036;-67
2022/07/17 02:35:45;;;;;;;12.35;5.32;;;;;;;11.60;84.92;102600.78;4877215;29;20037;-67
2022/07/17 02:38:11;;;;;;;8.73;3.85;;;;;;;11.54;84.94;102599.59;4877322;29;20366;-67
2022/07/17 02:40:36;;;;;;;5.18;2.88;;;;;;;11.58;84.86;102603.63;4877160;29;20036;-67
2022/07/17 02:43:02;;;;;;;7.90;3.65;;;;;;;11.62;84.74;102610.31;4877283;29;20039;-67
2022/07/17 02:45:27;;;;;;;9.63;4.35;;;;;;;11.63;84.75;102614.69;4877412;29;20033;-67
2022/07/17 02:47:54;;;;;;;4.38;3.05;;;;;;;11.61;84.62;102599.81;4876548;29;20492;-67
2022/07/17 02:50:20;;;;;;;7.97;3.70;;;;;;;11.49;84.74;102609.91;4877022;29;20116;-67
2022/07/17 02:52:47;;;;;;;5.80;3.38;;;;;;;11.44;85.65;102600.72;4877201;29;20121;-67
2022/07/17 02:55:14;;;;;;;7.00;3.67;;;;;;;11.32;85.40;102582.28;4877066;29;20029;-67
2022/07/17 02:57:39;;;;;;;9.90;3.97;;;;;;;11.31;85.51;102590.44;4876900;29;20088;-67
2022/07/17 03:00:07;;;;;;;4.97;3.65;;;;;;;11.28;85.77;102596.94;4876866;29;20434;-67
2022/07/17 03:02:33;;;;;;;11.65;3.50;;;;;;;11.28;86.11;102601.47;4877112;29;20593;-67
2022/07/17 03:04:58;;;;;;;6.90;3.35;;;;;;;11.21;86.23;102603.91;4876888;29;20123;-67
2022/07/17 03:07:24;;;;;;;7.43;3.63;;;;;;;11.13;86.32;102590.50;4876259;29;20065;-67
2022/07/17 03:09:49;;;;;;;8.82;3.45;;;;;;;11.15;86.30;102605.38;4876598;29;20497;-67
2022/07/17 03:12:14;;;;;;;7.25;3.30;;;;;;;11.19;86.35;102609.41;4876481;29;20100;-67
2022/07/17 03:14:40;;;;;;;9.20;3.67;;;;;;;11.20;85.89;102610.25;4876804;29;20040;-67
2022/07/17 03:17:05;;;;;;;7.88;3.42;;;;;;;11.15;85.73;102607.22;4876647;29;20137;-67
2022/07/17 03:19:31;;;;;;;7.15;3.45;;;;;;;11.07;86.28;102612.50;4876585;29;20584;-67
2022/07/17 03:21:56;;;;;;;5.57;3.03;;;;;;;10.98;86.84;102606.28;4875468;29;20511;-67
2022/07/17 03:24:22;;;;;;;8.38;3.78;;;;;;;10.94;87.01;102619.09;4876510;29;20502;-67
2022/07/17 03:26:47;;;;;;;9.13;3.30;;;;;;;10.88;87.31;102611.72;4876464;29;20044;-67
2022/07/17 03:29:16;;;;;;;6.72;3.50;;;;;;;10.85;87.49;102612.03;4876454;29;20033;-67
2022/07/17 03:31:43;;;;;;;5.53;3.40;;;;;;;10.86;87.38;102618.19;4875724;29;20029;-67
2022/07/17 03:34:08;;;;;;;4.57;3.30;;;;;;;10.81;87.78;102621.31;4875909;29;20029;-67
2022/07/17 03:36:33;;;;;;;14.77;3.65;;;;;;;10.80;87.61;102624.16;4876391;29;20101;-67
2022/07/17 03:38:59;;;;;;;5.68;3.67;;;;;;;10.74;87.48;102618.44;4876340;29;20032;-67
2022/07/17 03:41:24;;;;;;;7.18;3.92;;;;;;;10.74;87.96;102606.91;4876417;29;20499;-67
2022/07/17 03:43:50;;;;;;;10.50;5.10;;;;;;;10.64;87.96;102585.66;4876148;29;20123;-67
2022/07/17 03:46:15;;;;;;;8.40;3.35;;;;;;;10.79;88.64;102606.44;4875979;29;20040;-67
2022/07/17 03:48:40;;;;;;;5.72;4.03;;;;;;;10.82;88.20;102607.00;4875562;29;20040;-67
2022/07/17 03:51:06;;;;;;;8.18;4.10;;;;;;;10.85;88.26;102606.69;4875472;29;20064;-67
2022/07/17 03:53:31;;;;;;;9.07;3.47;;;;;;;10.84;88.19;102591.66;4876016;29;20037;-67
2022/07/17 03:55:56;;;;;;;7.90;3.85;;;;;;;10.85;87.71;102596.00;4859342;29;20077;-67
2022/07/17 03:58:22;;;;;;;6.70;3.53;;;;;;;10.88;87.88;102595.69;4875834;29;20033;-67
2022/07/17 04:00:47;;;;;;;9.27;3.00;;;;;;;10.89;87.97;102605.38;4875839;29;20094;-71
2022/07/17 04:03:12;;;;;;;12.73;4.57;;;;;;;10.88;87.79;102609.03;4875959;29;20032;-71
2022/07/17 04:05:38;;;;;;;7.90;3.85;;;;;;;10.86;87.67;102611.00;4875687;29;20037;-71
2022/07/17 04:08:03;;;;;;;7.53;3.35;;;;;;;10.94;87.29;102620.91;4875261;29;20129;-71
2022/07/17 04:10:29;;;;;;;9.27;3.45;;;;;;;10.91;87.09;102615.91;4875021;29;20132;-71
2022/07/17 04:12:54;;;;;;;7.97;3.85;;;;;;;10.93;87.57;102622.75;4875239;29;20041;-71
2022/07/17 04:18:03;;;;;;;6.55;3.55;;;;;;;10.92;88.04;102642.41;4875975;29;20512;-71
2022/07/17 04:20:28;;;;;;;4.65;3.00;;;;;;;10.91;88.34;102642.59;4875589;29;20037;-71
2022/07/17 04:22:54;;;;;;;6.82;3.63;;;;;;;10.89;88.07;102634.72;4875706;29;20032;-71
2022/07/17 04:25:19;;;;;;;7.65;3.72;;;;;;;10.91;88.62;102634.59;4875602;29;20189;-72
2022/07/17 04:27:45;;;;;;;6.47;3.08;;;;;;;10.88;88.30;102626.88;4875521;29;20033;-71
2022/07/17 04:30:10;;;;;;;6.85;3.03;;;;;;;10.96;87.81;102627.78;4875633;29;20036;-71
2022/07/17 04:32:35;;;;;;;6.15;2.97;;;;;;;10.91;87.89;102622.06;4875307;29;20044;-71
2022/07/17 04:35:01;;;;;;;8.13;4.85;;;;;;;10.99;88.21;102631.13;4875420;29;20409;-71
2022/07/17 04:37:26;;;;;;;8.52;3.38;;;;;;;10.93;88.06;102611.25;4875200;29;20480;-71
2022/07/17 04:39:51;;;;;;;8.88;3.75;;;;;;;11.11;88.13;102629.91;4874969;29;20080;-71
2022/07/17 04:42:17;;;;;;;11.38;3.72;;;;;;;11.15;87.97;102623.25;4875337;29;20136;-71
2022/07/17 04:44:42;;;;;;;8.82;3.25;;;;;;;11.11;87.93;102612.03;4875408;29;20143;-71
2022/07/17 04:47:07;;;;;;;9.02;3.67;;;;;;;11.33;87.89;102629.38;4875049;29;20118;-71
2022/07/17 04:49:33;;;;;;;8.43;4.50;;;;;;;11.47;87.30;102637.78;4875157;29;20040;-71
2022/07/17 04:51:58;;;;;;;7.65;3.25;;;;;;;11.60;87.52;102647.03;4874384;29;20445;-71
2022/07/17 04:54:23;;;;;;;5.20;3.60;;;;;;;11.71;87.97;102643.28;4858603;29;20109;-71
2022/07/17 04:56:49;;;;;;;6.82;3.60;;;;;;;11.76;88.02;102635.63;4875275;29;20120;-71
2022/07/17 04:59:15;;;;;;;10.35;4.40;;;;;;;11.89;88.47;102642.38;4875571;29;20135;-71
2022/07/17 05:01:40;;;;;;;11.00;4.47;;;;;;;11.95;88.56;102639.06;4874868;29;20033;-71
2022/07/17 05:04:05;;;;;;;8.75;4.32;;;;;;;11.88;89.16;102635.34;4874537;29;20045;-71
2022/07/17 05:06:31;;;;;;;10.25;3.53;;;;;;;12.02;88.96;102653.44;4874911;29;20516;-71
2022/07/17 05:08:56;;;;;;;4.82;3.60;;;;;;;12.11;88.64;102652.47;4875077;29;20041;-71
2022/07/17 05:11:22;;;;;;;6.32;4.20;;;;;;;12.18;88.67;102642.81;4858073;29;20447;-71
2022/07/17 05:13:47;;;;;;;12.73;4.80;;;;;;;12.39;88.79;102644.19;4874665;29;20108;-71
2022/07/17 05:16:12;;;;;;;7.90;5.05;;;;;;;12.54;87.48;102637.19;4874808;29;20041;-71
2022/07/17 05:18:38;;;;;;;8.40;4.72;;;;;;;12.59;86.79;102634.84;4875016;29;20093;-71
2022/07/17 05:21:03;;;;;;;7.95;4.15;;;;;;;12.69;86.70;102640.03;4875233;29;20530;-71
2022/07/17 05:23:29;;;;;;;8.93;4.18;;;;;;;12.85;86.18;102644.56;4875338;29;20072;-71
2022/07/17 05:25:54;;;;;;;10.10;4.50;;;;;;;12.93;84.35;102644.56;4875059;29;20093;-71
2022/07/17 05:28:19;;;;;;;5.00;3.20;;;;;;;12.93;84.85;102641.88;4875066;29;20447;-71
2022/07/17 05:30:45;;;;;;;10.20;4.13;;;;;;;13.07;84.44;102645.72;4874855;29;20056;-67
2022/07/17 05:33:10;;;;;;;7.63;3.45;;;;;;;13.19;84.13;102632.81;4842780;29;20033;-67
2022/07/17 05:35:35;;;;;;;10.10;4.97;;;;;;;13.26;83.04;102640.03;4874818;29;20036;-67
2022/07/17 05:38:01;;;;;;;10.65;3.75;;;;;;;13.42;83.08;102644.53;4875030;29;20121;-67
2022/07/17 05:40:26;;;;;;;8.95;4.82;;;;;;;13.50;81.09;102638.31;4874820;29;20540;-67
2022/07/17 05:42:51;;;;;;;13.77;4.30;;;;;;;13.62;81.78;102636.91;4858180;29;20481;-67
2022/07/17 05:45:17;;;;;;;9.57;4.32;;;;;;;13.70;80.12;102652.13;4875765;29;20128;-67
2022/07/17 05:47:42;;;;;;;10.45;4.22;;;;;;;13.76;80.79;102646.09;4878320;29;20477;-67
2022/07/17 05:50:08;;;;;;;9.40;4.40;;;;;;;13.73;80.10;102630.38;4878261;29;20037;-67
2022/07/17 05:52:33;;;;;;;9.05;5.22;;;;;;;13.88;81.68;102639.31;4861219;29;20124;-67
2022/07/17 05:54:58;;;;;;;12.88;5.00;;;;;;;13.94;79.56;102622.56;4878114;29;20041;-67
2022/07/17 05:57:24;;;;;;;8.82;3.55;;;;;;;14.06;80.43;102628.34;4877445;29;20036;-67
2022/07/17 05:59:49;;;;;;;10.27;5.32;;;;;;;14.15;79.89;102629.16;4877392;29;20127;-67
2022/07/17 06:02:14;;;;;;;11.23;4.57;;;;;;;14.27;80.11;102641.13;4878027;29;20059;-67
2022/07/17 06:04:40;;;;;;;13.02;5.25;;;;;;;14.28;78.43;102636.59;4877944;29;20037;-67
2022/07/17 06:07:05;;;;;;;8.18;4.05;;;;;;;14.27;78.06;102629.56;4877693;29;20068;-67
2022/07/17 06:09:31;;;;;;;6.20;3.58;;;;;;;14.37;78.78;102622.13;4877800;29;20116;-67
2022/07/17 06:11:57;;;;;;;9.52;4.07;;;;;;;14.50;77.65;102629.59;4861136;29;20401;-67
2022/07/17 06:14:24;;;;;;;9.98;4.55;;;;;;;14.59;78.41;102621.34;4877545;29;20057;-67
2022/07/17 06:16:50;;;;;;;9.45;3.85;;;;;;;14.71;77.17;102627.09;4877014;29;20031;-67
2022/07/17 06:19:15;;;;;;;9.77;3.78;;;;;;;14.80;77.35;102626.03;4877636;29;20061;-67
2022/07/17 06:21:41;;;;;;;13.70;4.05;;;;;;;14.86;76.44;102619.09;4860979;29;20417;-67
2022/07/17 06:24:06;;;;;;;9.50;3.40;;;;;;;14.91;75.79;102627.44;4877707;29;20454;-67
2022/07/17 06:26:32;;;;;;;8.52;5.05;;;;;;;14.97;75.86;102623.19;4877614;29;20565;-67
2022/07/17 06:28:57;;;;;;;7.28;3.72;;;;;;;14.96;76.29;102613.44;4877338;29;20116;-67
2022/07/17 06:31:23;;;;;;;5.85;4.10;;;;;;;15.02;75.44;102610.06;4877376;29;20402;-67
2022/07/17 06:33:48;;;;;;;9.73;4.85;;;;;;;15.09;74.68;102624.41;4877427;29;20104;-67
2022/07/17 06:36:13;;;;;;;14.18;3.40;;;;;;;15.18;75.51;102639.44;4877186;29;20569;-67
2022/07/17 06:38:39;;;;;;;8.30;3.50;;;;;;;15.22;73.92;102650.66;4877418;29;20453;-67
2022/07/17 06:41:04;;;;;;;11.95;4.13;;;;;;;15.22;72.43;102639.91;4877158;29;20351;-68
2022/07/17 06:43:29;;;;;;;13.15;4.65;;;;;;;15.27;72.84;102632.97;4877215;29;20658;-68
2022/07/17 06:45:55;;;;;;;7.35;3.25;;;;;;;15.28;74.79;102628.44;4877094;29;20981;-69
2022/07/17 06:48:21;;;;;;;8.02;4.22;;;;;;;15.34;72.08;102641.13;4860320;29;20112;-68
2022/07/17 06:50:46;;;;;;;5.68;3.17;;;;;;;15.36;71.39;102641.78;4877196;29;20457;-68
2022/07/17 06:53:12;;;;;;;11.60;4.18;;;;;;;15.43;71.70;102650.78;4877038;29;20116;-68
2022/07/17 06:55:37;;;;;;;7.28;3.72;;;;;;;15.49;72.41;102655.41;4876397;29;20033;-68
2022/07/17 06:58:03;;;;;;;9.98;4.60;;;;;;;15.52;72.53;102662.28;4875317;29;20442;-69
2022/07/17 07:00:28;;;;;;;12.77;3.95;;;;;;;15.54;71.56;102669.16;4876885;29;20051;-69
2022/07/17 07:02:54;;;;;;;8.98;3.80;;;;;;;15.55;71.20;102672.66;4876820;29;20041;-68
2022/07/17 07:05:19;;;;;;;12.23;4.75;;;;;;;15.59;70.66;102683.88;4876899;29;20040;-68
2022/07/17 07:07:45;;;;;;;9.70;4.53;;;;;;;15.63;70.58;102672.56;4876793;29;20063;-68
2022/07/17 07:10:10;;;;;;;9.73;3.65;;;;;;;15.68;69.28;102670.16;4876850;29;20035;-68
2022/07/17 07:12:36;;;;;;;6.40;4.00;;;;;;;15.73;69.73;102678.53;4876749;29;20043;-68
2022/07/17 07:15:01;;;;;;;5.22;3.30;;;;;;;15.77;70.74;102685.22;4876438;29;20025;-69
2022/07/17 07:17:26;;;;;;;8.13;4.82;;;;;;;15.82;70.63;102686.50;4876350;29;20041;-68
2022/07/17 07:19:52;;;;;;;9.15;4.43;;;;;;;15.88;69.90;102692.00;4875996;29;20089;-68
2022/07/17 07:22:17;;;;;;;6.88;3.63;;;;;;;15.95;70.46;102692.91;4876593;29;20082;-68
2022/07/17 07:24:43;;;;;;;8.45;4.30;;;;;;;16.02;70.84;102686.78;4876397;29;20180;-69
2022/07/17 07:27:08;;;;;;;11.05;4.03;;;;;;;16.03;69.46;102678.50;4876612;29;20041;-68
2022/07/17 07:29:33;;;;;;;9.07;4.10;;;;;;;16.14;69.61;102678.03;4876640;29;20039;-69
2022/07/17 07:31:59;;;;;;;10.05;4.65;;;;;;;16.19;70.65;102674.75;4876162;29;20064;-68
2022/07/17 07:34:24;;;;;;;12.38;4.55;;;;;;;16.25;68.92;102674.03;4876228;29;20381;-68
2022/07/17 07:36:50;;;;;;;7.38;4.10;;;;;;;16.23;69.16;102662.59;4876355;29;20149;-69
2022/07/17 07:39:15;;;;;;;8.35;4.10;;;;;;;16.38;69.24;102674.16;4876205;29;20037;-69
2022/07/17 07:41:41;;;;;;;8.98;3.95;;;;;;;16.49;69.36;102675.53;4861028;29;20041;-68
2022/07/17 07:44:07;;;;;;;8.52;4.15;;;;;;;16.56;68.07;102675.59;4876078;29;20040;-68
2022/07/17 07:46:33;;;;;;;9.38;4.03;;;;;;;16.52;67.42;102664.38;4876077;29;20396;-69
2022/07/17 07:48:59;;;;;;;8.82;3.97;;;;;;;16.61;68.50;102678.53;4876019;29;20045;-68
2022/07/17 07:51:24;;;;;;;8.15;4.00;;;;;;;16.69;66.75;102680.28;4876050;29;20120;-68
2022/07/17 07:53:49;;;;;;;10.20;4.50;;;;;;;16.78;66.73;102681.84;4876019;29;20446;-68
2022/07/17 07:56:15;;;;;;;7.25;3.60;;;;;;;16.84;66.85;102686.47;4859416;29;20882;-68
2022/07/17 07:58:40;;;;;;;6.43;2.75;;;;;;;16.90;64.07;102687.53;4875279;29;20380;-69
2022/07/17 08:01:05;;;;;;;10.70;3.30;;;;;;;16.92;63.96;102690.88;4875880;29;20051;-69
2022/07/17 08:03:31;;;;;;;10.05;3.50;;;;;;;16.97;63.08;102689.28;4875656;29;20080;-68
2022/07/17 08:05:56;;;;;;;5.22;2.40;;;;;;;17.04;62.71;102686.66;4858903;29;20033;-68
2022/07/17 08:08:21;;;;;;;5.95;3.28;;;;;;;17.10;63.96;102704.72;4875278;29;20033;-69
2022/07/17 08:10:47;;;;;;;9.20;3.63;;;;;;;17.18;65.82;102690.28;4875865;29;20036;-69
2022/07/17 08:13:13;;;;;;;11.27;4.45;;;;;;;17.29;65.52;102690.59;4875474;29;20029;-69
2022/07/17 08:15:38;;;;;;;8.68;3.00;;;;;;;17.64;63.75;102695.16;4875152;29;20398;-68
2022/07/17 08:18:03;;;;;;;7.97;2.88;;;;;;;18.78;59.46;102684.59;4875875;29;20064;-69
2022/07/17 08:20:29;;;;;;;6.40;2.80;;;;;;;21.11;52.93;102682.91;4858558;29;20043;-69
2022/07/17 08:22:54;;;;;;;6.20;2.22;;;;;;;23.70;47.67;102683.91;4875512;29;20493;-69
2022/07/17 08:25:20;;;;;;;8.85;4.13;;;;;;;25.65;42.30;102688.97;4875569;29;20470;-69
2022/07/17 08:27:45;;;;;;;5.47;2.97;;;;;;;27.48;39.32;102691.81;4875519;29;20116;-69
2022/07/17 08:30:13;;;;;;;8.27;2.70;;;;;;;28.71;36.04;102686.66;4875673;29;20080;-69
2022/07/17 08:32:38;;;;;;;5.70;2.33;;;;;;;29.53;32.21;102689.31;4875565;29;20564;-69
2022/07/17 08:35:04;;;;;;;6.95;1.65;;;;;;;29.48;30.93;102692.06;4858779;29;20025;-69
2022/07/17 08:37:29;;;;;;;8.52;2.60;;;;;;;29.84;30.98;102687.28;4875449;29;20082;-69
2022/07/17 08:39:56;;;;;;;6.60;2.53;;;;;;;30.11;30.63;102683.28;4875467;29;20060;-69
2022/07/17 08:42:21;;;;;;;7.03;2.80;;;;;;;30.51;30.23;102676.66;4875198;29;20044;-69
2022/07/17 08:44:47;;;;;;;6.55;2.42;;;;;;;31.15;28.32;102674.72;4875480;29;20029;-69
2022/07/17 08:47:13;;;;;;;4.97;2.03;;;;;;;31.27;27.57;102670.72;4875311;29;20048;-69
2022/07/17 08:49:48;;;;;;;6.80;2.55;;;;;;;31.31;29.69;102669.84;4875354;29;20494;-69
2022/07/17 08:52:14;;;;;;;5.78;2.25;;;;;;;30.99;28.44;102671.31;4874388;29;20141;-69
2022/07/17 08:54:40;;;;;;;9.95;2.53;;;;;;;31.28;29.63;102673.19;4874847;29;20120;-73
2022/07/17 08:57:06;;;;;;;3.45;1.80;;;;;;;31.76;28.83;102678.69;4875271;29;20517;-74
2022/07/17 08:59:31;;;;;;;6.97;2.63;;;;;;;31.95;27.79;102677.91;4874582;29;20165;-74
2022/07/17 09:01:59;;;;;;;8.40;2.92;;;;;;;32.32;27.59;102677.06;4875254;29;20049;-74
2022/07/17 09:04:25;;;;;;;4.80;2.25;;;;;;;32.46;26.33;102666.91;4875118;29;20025;-74
2022/07/17 09:07:04;;;;;;;7.50;2.15;;;;;;;31.62;30.00;102669.50;4872411;29;20112;-72
2022/07/17 09:09:31;;;;;;;6.20;3.13;;;;;;;29.46;30.43;102675.03;4870404;29;20362;-71
2022/07/17 09:11:58;;;;;;;5.95;2.00;;;;;;;27.27;33.29;102665.34;4871246;29;20076;-70
2022/07/17 09:14:35;;;;;;;5.10;2.28;;;;;;;25.72;35.90;102664.97;4870664;29;20470;-70
2022/07/17 09:17:00;;;;;;;3.65;2.00;;;;;;;24.44;38.81;102665.81;4871213;29;20032;-70
2022/07/17 09:19:34;;;;;;;7.45;2.38;;;;;;;23.66;40.71;102669.09;4872403;29;20029;-70
2022/07/17 09:22:04;;;;;;;4.00;2.38;;;;;;;23.11;42.19;102660.28;4874278;29;20671;-70
2022/07/17 09:24:44;;;;;;;5.63;2.22;;;;;;;22.84;44.62;102665.31;4874602;29;20886;-70
2022/07/17 09:27:11;;;;;;;3.90;2.42;;;;;;;22.63;43.90;102669.41;4857969;29;20108;-71
2022/07/17 09:29:55;;;;;;;7.13;3.35;;;;;;;22.51;44.19;102663.97;4874099;29;20117;-71
2022/07/17 09:32:23;;;;;;;5.95;2.00;;;;;;;22.40;46.50;102666.63;4876534;29;20029;-71
2022/07/17 09:34:50;;;;;;;8.10;2.92;;;;;;;22.30;44.81;102669.94;4877987;29;20116;-69
2022/07/17 09:37:15;;;;;;;7.30;2.15;;;;;;;22.15;46.29;102659.44;4878597;29;20072;-69
2022/07/17 09:39:41;;;;;;;15.35;3.95;;;;;;;22.07;46.15;102651.59;4878350;29;20064;-69
2022/07/17 09:42:07;;;;;;;8.20;2.88;;;;;;;21.94;45.80;102651.78;4878482;29;20469;-69
2022/07/17 09:44:32;;;;;;;7.38;2.63;;;;;;;21.77;47.43;102649.69;4878253;29;20115;-69
2022/07/17 09:46:59;;;;;;;4.88;2.30;;;;;;;21.47;46.07;102630.59;4878430;29;20037;-69
2022/07/17 09:49:26;;;;;;;3.55;2.30;;;;;;;21.24;46.11;102644.81;4878200;29;20473;-69
2022/07/17 09:51:53;;;;;;;12.40;2.97;;;;;;;21.27;46.59;102652.50;4878251;29;20039;-69
2022/07/17 09:54:21;;;;;;;6.22;2.25;;;;;;;21.36;48.03;102655.75;4878146;29;20033;-69
2022/07/17 09:56:50;;;;;;;6.10;3.05;;;;;;;21.38;47.01;102662.66;4878068;29;20036;-69
2022/07/17 09:59:17;;;;;;;7.30;2.50;;;;;;;21.48;47.17;102656.69;4878019;29;20048;-69
2022/07/17 10:01:44;;;;;;;4.65;1.77;;;;;;;21.60;47.18;102646.75;4877058;29;20025;-69
2022/07/17 10:04:12;;;;;;;5.00;1.80;;;;;;;21.68;47.62;102656.47;4877408;29;20646;-69
2022/07/17 10:06:38;;;;;;;7.30;2.30;;;;;;;21.67;46.94;102654.81;4877777;29;20060;-69
2022/07/17 10:09:05;;;;;;;8.70;3.95;;;;;;;21.63;46.78;102648.19;4878166;29;20049;-69
2022/07/17 10:11:33;;;;;;;6.88;2.88;;;;;;;21.75;47.23;102668.09;4880392;29;20044;-69
2022/07/17 10:14:24;;;;;;;5.50;2.40;;;;;;;21.81;47.53;102671.78;4877674;29;20481;-69
2022/07/17 10:16:51;;;;;;;3.90;1.75;;;;;;;21.87;49.40;102666.25;4873978;29;20918;-69
2022/07/17 10:19:22;;;;;;;5.25;1.90;;;;;;;21.95;47.52;102659.69;4877616;29;20115;-69
2022/07/17 10:21:59;;;;;;;7.00;2.33;;;;;;;22.06;46.01;102652.63;4877574;29;20044;-69
2022/07/17 10:24:26;;;;;;;2.85;2.15;;;;;;;22.16;47.10;102660.25;4876937;29;20104;-69
2022/07/17 10:26:52;;;;;;;5.45;1.80;;;;;;;22.22;45.00;102662.94;4877732;29;20442;-72
2022/07/17 10:29:34;;;;;;;3.90;1.73;;;;;;;22.36;46.98;102660.84;4877548;29;20085;-69
2022/07/17 10:32:02;;;;;;;9.73;2.88;;;;;;;22.27;42.93;102665.78;4876977;29;20047;-69
2022/07/17 10:35:02;;;;;;;2.45;1.90;;;;;;;22.24;46.19;102666.25;4877555;29;20029;-69
2022/07/17 10:37:37;;;;;;;6.35;2.00;;;;;;;22.33;44.98;102668.63;4867064;29;20049;-69
2022/07/17 10:40:18;;;;;;;7.15;2.63;;;;;;;22.44;44.74;102659.69;4877152;29;20143;-69
2022/07/17 10:42:58;;;;;;;5.05;2.00;;;;;;;22.51;43.69;102655.81;4877342;29;20040;-69
2022/07/17 10:45:33;;;;;;;6.85;2.65;;;;;;;22.64;45.39;102654.78;4876974;29;20028;-71
2022/07/17 10:48:06;;;;;;;4.57;2.28;;;;;;;22.74;43.44;102662.34;4876820;29;20044;-70
2022/07/17 10:50:35;;;;;;;6.00;1.75;;;;;;;22.51;41.07;102655.81;4877036;29;20044;-70
2022/07/17 10:53:08;;;;;;;8.27;1.98;;;;;;;22.54;42.06;102654.50;4877244;29;20112;-70
2022/07/17 10:55:36;;;;;;;4.53;1.70;;;;;;;22.46;40.20;102650.22;4877032;29;20076;-70
2022/07/17 10:58:03;;;;;;;4.97;1.65;;;;;;;22.50;43.20;102639.72;4876754;29;20530;-70
2022/07/17 11:00:28;;;;;;;4.95;2.25;;;;;;;22.61;40.97;102647.09;4876946;29;20036;-70
2022/07/17 11:02:54;;;;;;;8.68;2.90;;;;;;;22.78;41.92;102649.13;4876443;29;20043;-70
2022/07/17 11:05:19;;;;;;;4.13;1.35;;;;;;;22.85;41.20;102653.38;4876591;29;20048;-70
2022/07/17 11:07:54;;;;;;;8.32;1.83;;;;;;;23.02;43.52;102658.97;4876839;29;20416;-70
2022/07/17 11:10:21;;;;;;;3.53;1.52;;;;;;;23.11;40.78;102652.13;4876604;29;20079;-70
2022/07/17 11:12:46;;;;;;;7.03;2.28;;;;;;;23.07;38.04;102655.56;4876886;29;20586;-70
2022/07/17 11:15:11;;;;;;;4.93;1.48;;;;;;;23.04;38.97;102645.13;4876687;29;20124;-70
2022/07/17 11:17:37;;;;;;;6.85;2.03;;;;;;;23.19;38.26;102643.59;4876673;29;20056;-70
2022/07/17 11:20:03;;;;;;;3.58;1.77;;;;;;;23.26;38.21;102642.63;4875753;29;20037;-70
2022/07/17 11:22:28;;;;;;;4.90;1.38;;;;;;;23.28;37.80;102645.94;4876166;29;20033;-70
2022/07/17 11:24:54;;;;;;;2.30;1.17;;;;;;;23.21;37.62;102645.25;4876398;29;20371;-70